Time;durP1;ratioP1;P1;durP2;ratioP2;P2;SDS_P1;SDS_P2;PMS_P1;PMS_P2;Temp;Humidity;BMP_temperature;BMP_pressure;BME280_temperature;BME280_humidity;BME280_pressure;Samples;Min_cycle;Max_cycle;Signal;HPM_P1;HPM_P2
2022/05/12 00:01:08;;;;;;;9.43;6.00;;;;;;;;;;5071973;28;20386;-58
2022/05/12 00:03:35;;;;;;;8.00;5.97;;;;;;;;;;5072510;28;20432;-58
2022/05/12 00:06:01;;;;;;;8.60;6.17;;;;;;;;;;5072531;28;20432;-58
2022/05/12 00:08:27;;;;;;;8.03;6.87;;;;;;;;;;5072556;28;20499;-58
2022/05/12 00:10:54;;;;;;;11.50;7.27;;;;;;;;;;5071762;28;20973;-58
2022/05/12 00:13:20;;;;;;;7.87;6.60;;;;;;;;;;5071675;28;20925;-58
2022/05/12 00:15:48;;;;;;;8.13;6.67;;;;;;;;;;5072308;28;20404;-58
2022/05/12 00:18:14;;;;;;;13.63;8.37;;;;;;;;;;5072177;28;20981;-58
2022/05/12 00:20:41;;;;;;;10.10;7.93;;;;;;;;;;5072124;28;20392;-58
2022/05/12 00:23:07;;;;;;;13.50;8.30;;;;;;;;;;5071779;28;20514;-58
2022/05/12 00:25:33;;;;;;;16.53;7.40;;;;;;;;;;5072265;28;20471;-58
2022/05/12 00:27:59;;;;;;;13.57;7.20;;;;;;;;;;5072203;28;20900;-58
2022/05/12 00:30:25;;;;;;;10.30;7.50;;;;;;;;;;5072075;28;20412;-58
2022/05/12 00:32:51;;;;;;;11.27;8.50;;;;;;;;;;5070547;28;20862;-58
2022/05/12 00:35:18;;;;;;;16.60;8.80;;;;;;;;;;5072182;28;20491;-58
2022/05/12 00:37:44;;;;;;;10.40;8.50;;;;;;;;;;5072025;28;20469;-58
2022/05/12 00:40:10;;;;;;;13.30;8.80;;;;;;;;;;5071991;28;20764;-58
2022/05/12 00:42:36;;;;;;;16.10;10.10;;;;;;;;;;5071341;28;20379;-58
2022/05/12 00:45:02;;;;;;;14.40;10.23;;;;;;;;;;5071883;28;20424;-58
2022/05/12 00:47:28;;;;;;;16.27;10.80;;;;;;;;;;5072115;28;20395;-58
2022/05/12 00:49:54;;;;;;;17.10;10.93;;;;;;;;;;5071839;28;20399;-58
2022/05/12 00:52:23;;;;;;;14.53;10.87;;;;;;;;;;5071147;28;20434;-58
2022/05/12 00:54:55;;;;;;;15.07;9.90;;;;;;;;;;5071786;28;20394;-58
2022/05/12 00:57:26;;;;;;;16.53;11.53;;;;;;;;;;5071814;28;20895;-58
2022/05/12 00:59:52;;;;;;;23.40;10.70;;;;;;;;;;5071713;28;20460;-58
2022/05/12 01:02:20;;;;;;;14.63;10.47;;;;;;;;;;5070402;28;20400;-58
2022/05/12 01:04:47;;;;;;;11.90;9.90;;;;;;;;;;5071206;28;20431;-58
2022/05/12 01:07:13;;;;;;;12.70;9.27;;;;;;;;;;5071556;28;20505;-58
2022/05/12 01:09:39;;;;;;;18.40;9.90;;;;;;;;;;5071675;28;20382;-58
2022/05/12 01:12:06;;;;;;;12.70;9.80;;;;;;;;;;5071034;28;20417;-58
2022/05/12 01:14:32;;;;;;;9.33;8.17;;;;;;;;;;5071836;28;20834;-58
2022/05/12 01:16:59;;;;;;;11.53;8.03;;;;;;;;;;5071637;28;20811;-58
2022/05/12 01:19:29;;;;;;;11.60;7.77;;;;;;;;;;5071595;28;20492;-58
2022/05/12 01:21:56;;;;;;;8.70;6.60;;;;;;;;;;5070916;28;20829;-58
2022/05/12 01:24:24;;;;;;;10.00;7.03;;;;;;;;;;5073860;28;20825;-58
2022/05/12 01:26:50;;;;;;;12.30;6.67;;;;;;;;;;5075592;28;20415;-58
2022/05/12 01:29:17;;;;;;;11.20;5.70;;;;;;;;;;5075574;28;20372;-57
2022/05/12 01:31:43;;;;;;;8.73;5.70;;;;;;;;;;5074898;28;20414;-58
2022/05/12 01:34:11;;;;;;;9.93;6.10;;;;;;;;;;5075363;28;20413;-58
2022/05/12 01:36:37;;;;;;;8.77;6.40;;;;;;;;;;5075117;28;20415;-58
2022/05/12 01:39:04;;;;;;;9.90;5.93;;;;;;;;;;5075133;28;20516;-58
2022/05/12 01:41:30;;;;;;;15.20;6.87;;;;;;;;;;5074673;28;20470;-58
2022/05/12 01:43:56;;;;;;;12.57;6.77;;;;;;;;;;5075144;28;20977;-57
2022/05/12 01:46:22;;;;;;;14.43;6.67;;;;;;;;;;5075288;28;20396;-58
2022/05/12 01:48:48;;;;;;;6.83;5.50;;;;;;;;;;5075124;28;20538;-57
2022/05/12 01:51:14;;;;;;;8.70;5.70;;;;;;;;;;5074322;28;20412;-57
2022/05/12 01:53:41;;;;;;;7.07;5.47;;;;;;;;;;5075064;28;20425;-57
2022/05/12 01:56:08;;;;;;;6.00;5.50;;;;;;;;;;5075016;28;20409;-57
2022/05/12 01:58:33;;;;;;;10.87;5.50;;;;;;;;;;5074798;28;20452;-57
2022/05/12 02:01:01;;;;;;;6.90;4.10;;;;;;;;;;5074315;28;20428;-57
2022/05/12 02:03:27;;;;;;;9.53;5.10;;;;;;;;;;5074936;28;20542;-57
2022/05/12 02:05:52;;;;;;;4.80;4.30;;;;;;;;;;5074767;28;20420;-57
2022/05/12 02:08:19;;;;;;;9.07;4.17;;;;;;;;;;5074758;28;20487;-57
2022/05/12 02:10:47;;;;;;;14.00;4.97;;;;;;;;;;5074366;28;20506;-57
2022/05/12 02:13:14;;;;;;;5.73;4.10;;;;;;;;;;5074630;28;20425;-57
2022/05/12 02:15:41;;;;;;;6.33;4.80;;;;;;;;;;5074675;28;20496;-57
2022/05/12 02:18:07;;;;;;;7.57;4.13;;;;;;;;;;5074571;28;20480;-57
2022/05/12 02:20:33;;;;;;;4.90;4.20;;;;;;;;;;5074527;28;20601;-57
2022/05/12 02:22:59;;;;;;;6.47;3.73;;;;;;;;;;5073843;28;20431;-57
2022/05/12 02:25:25;;;;;;;4.87;3.77;;;;;;;;;;5074530;28;20496;-57
2022/05/12 02:27:51;;;;;;;6.20;3.00;;;;;;;;;;5074423;28;20397;-57
2022/05/12 02:30:20;;;;;;;14.23;3.87;;;;;;;;;;5074334;28;20768;-57
2022/05/12 02:32:47;;;;;;;4.97;3.20;;;;;;;;;;5073684;28;20423;-57
2022/05/12 02:35:13;;;;;;;9.53;4.23;;;;;;;;;;5073557;28;20408;-57
2022/05/12 02:37:39;;;;;;;9.13;3.63;;;;;;;;;;5074318;28;20393;-57
2022/05/12 02:40:05;;;;;;;14.57;4.63;;;;;;;;;;5074089;28;20455;-57
2022/05/12 02:42:31;;;;;;;5.77;4.13;;;;;;;;;;5073539;28;20392;-57
2022/05/12 02:44:57;;;;;;;3.90;3.60;;;;;;;;;;5074154;28;20417;-57
2022/05/12 02:47:23;;;;;;;5.33;3.90;;;;;;;;;;5074220;28;20458;-57
2022/05/12 02:49:49;;;;;;;5.67;4.73;;;;;;;;;;5073952;28;20401;-57
2022/05/12 02:52:15;;;;;;;4.97;4.47;;;;;;;;;;5073266;28;20416;-57
2022/05/12 02:54:41;;;;;;;5.00;3.70;;;;;;;;;;5073890;28;20417;-57
2022/05/12 02:57:07;;;;;;;10.43;4.10;;;;;;;;;;5073894;28;20467;-57
2022/05/12 02:59:33;;;;;;;5.50;4.10;;;;;;;;;;5073749;28;20461;-57
2022/05/12 03:02:00;;;;;;;8.77;4.33;;;;;;;;;;5073132;28;20835;-57
2022/05/12 03:04:26;;;;;;;10.10;4.20;;;;;;;;;;5073704;28;20413;-57
2022/05/12 03:06:53;;;;;;;6.80;4.53;;;;;;;;;;5073762;28;20408;-57
2022/05/12 03:09:19;;;;;;;4.47;4.07;;;;;;;;;;5073550;28;20404;-57
2022/05/12 03:11:45;;;;;;;9.47;4.10;;;;;;;;;;5072931;28;20867;-57
2022/05/12 03:14:11;;;;;;;7.87;3.90;;;;;;;;;;5073530;28;20431;-57
2022/05/12 03:16:37;;;;;;;4.23;3.83;;;;;;;;;;5073567;28;20405;-57
2022/05/12 03:19:03;;;;;;;3.50;3.30;;;;;;;;;;5073318;28;20456;-57
2022/05/12 03:21:30;;;;;;;7.10;3.90;;;;;;;;;;5072840;28;20776;-57
2022/05/12 03:23:56;;;;;;;5.80;3.60;;;;;;;;;;5073329;28;20431;-57
2022/05/12 03:26:23;;;;;;;9.00;3.57;;;;;;;;;;5073276;28;20397;-57
2022/05/12 03:28:49;;;;;;;5.63;3.80;;;;;;;;;;5073228;28;20401;-57
2022/05/12 03:31:15;;;;;;;4.03;3.63;;;;;;;;;;5072545;28;20458;-57
2022/05/12 03:33:41;;;;;;;6.87;3.17;;;;;;;;;;5072789;28;20437;-57
2022/05/12 03:36:07;;;;;;;3.87;3.47;;;;;;;;;;5073110;28;20484;-57
2022/05/12 03:38:33;;;;;;;3.97;3.13;;;;;;;;;;5072956;28;20467;-57
2022/05/12 03:40:59;;;;;;;4.43;3.70;;;;;;;;;;5072691;28;20793;-57
2022/05/12 03:46:12;;;;;;;6.60;3.60;;;;;;;;;;5072766;28;20393;-57
2022/05/12 03:48:39;;;;;;;9.63;4.20;;;;;;;;;;5071991;28;20420;-57
2022/05/12 03:51:05;;;;;;;6.13;3.90;;;;;;;;;;5072186;28;20404;-57
2022/05/12 03:53:31;;;;;;;8.40;4.23;;;;;;;;;;5072660;28;20436;-57
2022/05/12 03:55:58;;;;;;;6.23;3.30;;;;;;;;;;5072680;28;20397;-57
2022/05/12 03:58:24;;;;;;;4.17;3.77;;;;;;;;;;5072505;28;20460;-57
2022/05/12 04:00:50;;;;;;;3.80;3.50;;;;;;;;;;5072016;28;21101;-57
2022/05/12 04:03:16;;;;;;;7.37;3.60;;;;;;;;;;5072550;28;20416;-57
2022/05/12 04:05:43;;;;;;;7.90;3.70;;;;;;;;;;5072734;28;20428;-57
2022/05/12 04:08:09;;;;;;;3.63;3.33;;;;;;;;;;5072472;28;20443;-57
2022/05/12 04:10:35;;;;;;;6.50;3.73;;;;;;;;;;5072343;28;20400;-57
2022/05/12 04:13:01;;;;;;;7.43;3.53;;;;;;;;;;5071725;28;20436;-57
2022/05/12 04:15:28;;;;;;;10.97;3.80;;;;;;;;;;5072495;28;20405;-57
2022/05/12 04:17:58;;;;;;;5.60;3.60;;;;;;;;;;5072276;28;20954;-57
2022/05/12 04:20:24;;;;;;;7.33;3.67;;;;;;;;;;5072224;28;20884;-57
2022/05/12 04:22:50;;;;;;;4.60;3.47;;;;;;;;;;5071583;28;20424;-57
2022/05/12 04:25:16;;;;;;;2.80;2.60;;;;;;;;;;5072209;28;20904;-57
2022/05/12 04:27:42;;;;;;;4.77;3.47;;;;;;;;;;5072166;28;20765;-57
2022/05/12 04:30:11;;;;;;;4.60;3.10;;;;;;;;;;5072089;28;20412;-57
2022/05/12 04:32:37;;;;;;;5.43;3.77;;;;;;;;;;5071464;28;20396;-57
2022/05/12 04:35:15;;;;;;;7.07;4.20;;;;;;;;;;5072062;28;20451;-57
2022/05/12 04:37:44;;;;;;;5.57;4.23;;;;;;;;;;5072086;28;20396;-57
2022/05/12 04:40:10;;;;;;;4.73;3.80;;;;;;;;;;5071948;28;20424;-57
2022/05/12 04:42:36;;;;;;;5.27;4.60;;;;;;;;;;5071434;28;20889;-57
2022/05/12 04:45:03;;;;;;;7.50;4.90;;;;;;;;;;5071926;28;20407;-57
2022/05/12 04:47:29;;;;;;;6.77;5.13;;;;;;;;;;5071971;28;20388;-57
2022/05/12 04:49:56;;;;;;;8.03;4.80;;;;;;;;;;5072065;28;20401;-57
2022/05/12 04:52:23;;;;;;;5.83;5.23;;;;;;;;;;5071188;28;20420;-57
2022/05/12 04:54:49;;;;;;;8.73;4.80;;;;;;;;;;5071718;28;20416;-57
2022/05/12 04:57:15;;;;;;;7.80;5.70;;;;;;;;;;5071827;28;20401;-57
2022/05/12 04:59:41;;;;;;;9.80;5.83;;;;;;;;;;5071346;28;20456;-57
2022/05/12 05:02:07;;;;;;;5.27;4.50;;;;;;;;;;5071247;28;20892;-57
2022/05/12 05:04:33;;;;;;;7.00;6.03;;;;;;;;;;5071762;28;20457;-57
2022/05/12 05:06:59;;;;;;;8.00;5.30;;;;;;;;;;5071851;28;20401;-57
2022/05/12 05:09:25;;;;;;;8.60;5.90;;;;;;;;;;5071662;28;20454;-57
2022/05/12 05:11:51;;;;;;;6.90;5.07;;;;;;;;;;5071117;28;20405;-57
2022/05/12 05:14:17;;;;;;;7.40;6.60;;;;;;;;;;5071692;28;20420;-57
2022/05/12 05:16:43;;;;;;;7.83;5.80;;;;;;;;;;5072283;28;20436;-57
2022/05/12 05:19:09;;;;;;;11.03;6.67;;;;;;;;;;5071577;28;20511;-57
2022/05/12 05:21:35;;;;;;;6.70;5.23;;;;;;;;;;5070960;28;20449;-57
2022/05/12 05:24:01;;;;;;;6.63;5.77;;;;;;;;;;5071468;28;20456;-57
2022/05/12 05:26:27;;;;;;;8.03;6.13;;;;;;;;;;5071605;28;20401;-57
2022/05/12 05:28:53;;;;;;;6.57;5.90;;;;;;;;;;5071565;28;20965;-57
2022/05/12 05:31:19;;;;;;;7.47;6.23;;;;;;;;;;5070910;28;20427;-57
2022/05/12 05:33:45;;;;;;;9.33;6.10;;;;;;;;;;5071486;28;20475;-57
2022/05/12 05:36:11;;;;;;;9.73;6.53;;;;;;;;;;5071516;28;20427;-57
2022/05/12 05:38:37;;;;;;;9.83;5.80;;;;;;;;;;5071384;28;20454;-57
2022/05/12 05:41:03;;;;;;;11.20;5.70;;;;;;;;;;5070812;28;20998;-57
2022/05/12 05:43:29;;;;;;;6.77;6.07;;;;;;;;;;5071410;28;20424;-57
2022/05/12 05:45:55;;;;;;;10.90;5.87;;;;;;;;;;5071466;28;20408;-57
2022/05/12 05:48:21;;;;;;;7.93;5.97;;;;;;;;;;5071388;28;20468;-57
2022/05/12 05:53:35;;;;;;;5.97;5.33;;;;;;;;;;5071440;28;20448;-57
2022/05/12 05:56:01;;;;;;;11.73;5.77;;;;;;;;;;5071345;28;20402;-57
2022/05/12 05:58:28;;;;;;;7.83;5.63;;;;;;;;;;5071157;28;20450;-57
2022/05/12 06:00:54;;;;;;;10.90;5.77;;;;;;;;;;5070630;28;20376;-57
2022/05/12 06:03:21;;;;;;;11.43;5.40;;;;;;;;;;5070289;28;20425;-57
2022/05/12 06:05:47;;;;;;;8.90;5.57;;;;;;;;;;5070329;28;20454;-57
2022/05/12 06:08:14;;;;;;;7.10;5.67;;;;;;;;;;5070316;28;20437;-57
2022/05/12 06:10:40;;;;;;;9.97;6.63;;;;;;;;;;5064431;28;20421;-56
2022/05/12 06:13:08;;;;;;;7.10;5.73;;;;;;;;;;5071105;28;20420;-56
2022/05/12 06:15:34;;;;;;;10.73;6.27;;;;;;;;;;5073165;28;20422;-56
2022/05/12 06:18:00;;;;;;;7.73;5.47;;;;;;;;;;5071381;28;20801;-56
2022/05/12 06:20:26;;;;;;;26.67;6.40;;;;;;;;;;5074521;28;20393;-57
2022/05/12 06:22:52;;;;;;;12.10;6.20;;;;;;;;;;5073389;28;20410;-57
2022/05/12 06:25:19;;;;;;;10.50;5.90;;;;;;;;;;5074352;28;20772;-57
2022/05/12 06:27:45;;;;;;;9.27;5.87;;;;;;;;;;5074509;28;20413;-57
2022/05/12 06:30:12;;;;;;;7.97;5.80;;;;;;;;;;5074568;28;20433;-57
2022/05/12 06:32:39;;;;;;;6.77;5.77;;;;;;;;;;5073722;28;20437;-57
2022/05/12 06:35:05;;;;;;;6.67;5.97;;;;;;;;;;5073895;28;20467;-57
2022/05/12 06:37:32;;;;;;;9.00;6.40;;;;;;;;;;5073048;28;20518;-57
2022/05/12 06:39:58;;;;;;;8.97;6.50;;;;;;;;;;5073579;28;20969;-57
2022/05/12 06:42:24;;;;;;;8.50;5.73;;;;;;;;;;5073488;28;20437;-57
2022/05/12 06:44:50;;;;;;;9.10;6.10;;;;;;;;;;5073573;28;20443;-56
2022/05/12 06:47:16;;;;;;;14.50;6.63;;;;;;;;;;5073989;28;20485;-57
2022/05/12 06:49:43;;;;;;;10.53;5.70;;;;;;;;;;5074399;28;20550;-57
2022/05/12 06:52:09;;;;;;;10.03;5.57;;;;;;;;;;5073973;28;20799;-57
2022/05/12 06:54:36;;;;;;;9.40;6.10;;;;;;;;;;5073634;28;20962;-57
2022/05/12 06:57:02;;;;;;;6.80;5.43;;;;;;;;;;5073250;28;20413;-56
2022/05/12 06:59:28;;;;;;;13.40;6.17;;;;;;;;;;5073635;28;20452;-57
2022/05/12 07:01:55;;;;;;;7.30;6.27;;;;;;;;;;5072660;28;20423;-57
2022/05/12 07:04:21;;;;;;;12.60;5.30;;;;;;;;;;5073164;28;20447;-57
2022/05/12 07:06:47;;;;;;;13.77;6.10;;;;;;;;;;5073434;28;20404;-57
2022/05/12 07:09:14;;;;;;;7.90;5.47;;;;;;;;;;5073293;28;20422;-57
2022/05/12 07:11:40;;;;;;;10.10;5.97;;;;;;;;;;5072900;28;20428;-57
2022/05/12 07:14:06;;;;;;;10.63;6.17;;;;;;;;;;5073445;28;20440;-56
2022/05/12 07:16:32;;;;;;;9.87;4.80;;;;;;;;;;5072903;28;20505;-56
2022/05/12 07:18:58;;;;;;;6.83;4.33;;;;;;;;;;5073106;28;20490;-56
2022/05/12 07:26:54;;;;;;;6.57;4.73;;;;;;;;;;5073157;28;20451;-56
2022/05/12 07:29:22;;;;;;;8.30;4.43;;;;;;;;;;5073183;28;20379;-56
2022/05/12 07:31:49;;;;;;;8.87;5.70;;;;;;;;;;5072241;28;20753;-56
2022/05/12 07:34:15;;;;;;;7.67;4.30;;;;;;;;;;5072798;28;20434;-56
2022/05/12 07:36:43;;;;;;;5.67;3.67;;;;;;;;;;5072986;28;20392;-56
2022/05/12 07:39:12;;;;;;;6.87;4.37;;;;;;;;;;5072260;28;20433;-57
2022/05/12 07:41:41;;;;;;;6.87;4.47;;;;;;;;;;5072160;28;20897;-56
2022/05/12 07:44:08;;;;;;;9.63;5.33;;;;;;;;;;5072701;28;20412;-56
2022/05/12 07:46:34;;;;;;;4.40;3.70;;;;;;;;;;5072681;28;20515;-57
2022/05/12 07:49:00;;;;;;;5.77;3.70;;;;;;;;;;5072947;28;20377;-57
2022/05/12 07:51:26;;;;;;;8.57;5.60;;;;;;;;;;5071738;28;20401;-57
2022/05/12 07:53:52;;;;;;;4.97;3.90;;;;;;;;;;5072814;28;20400;-57
2022/05/12 07:56:20;;;;;;;9.23;3.60;;;;;;;;;;5072227;28;20393;-57
2022/05/12 07:58:46;;;;;;;3.70;3.40;;;;;;;;;;5072420;28;20948;-57
2022/05/12 08:01:12;;;;;;;6.07;3.70;;;;;;;;;;5071898;28;20928;-56
2022/05/12 08:03:39;;;;;;;4.67;2.80;;;;;;;;;;5072405;28;20529;-57
2022/05/12 08:06:05;;;;;;;4.20;3.33;;;;;;;;;;5070257;28;20758;-57
2022/05/12 08:08:32;;;;;;;7.20;3.10;;;;;;;;;;5064149;28;20422;-57
2022/05/12 08:10:58;;;;;;;6.40;2.90;;;;;;;;;;5071498;28;20387;-57
2022/05/12 08:13:25;;;;;;;3.20;2.80;;;;;;;;;;5071491;28;20845;-57
2022/05/12 08:15:51;;;;;;;5.07;3.10;;;;;;;;;;5073197;28;20862;-57
2022/05/12 08:18:18;;;;;;;3.40;3.07;;;;;;;;;;5072426;28;20451;-58
2022/05/12 08:20:45;;;;;;;9.70;3.27;;;;;;;;;;5071730;28;20437;-57
2022/05/12 08:23:11;;;;;;;4.33;3.00;;;;;;;;;;5072358;28;20476;-56
2022/05/12 08:25:38;;;;;;;3.97;2.90;;;;;;;;;;5072418;28;20416;-57
2022/05/12 08:28:04;;;;;;;7.80;2.93;;;;;;;;;;5071901;28;20418;-58
2022/05/12 08:30:31;;;;;;;3.50;3.17;;;;;;;;;;5071708;28;20510;-57
2022/05/12 08:32:57;;;;;;;3.97;2.40;;;;;;;;;;5070414;28;20416;-57
2022/05/12 08:35:24;;;;;;;4.47;3.17;;;;;;;;;;5070611;28;20427;-57
2022/05/12 08:37:50;;;;;;;7.00;3.70;;;;;;;;;;5072080;28;20394;-59
2022/05/12 08:40:20;;;;;;;4.70;3.03;;;;;;;;;;5071268;28;20482;-57
2022/05/12 08:42:47;;;;;;;6.10;3.13;;;;;;;;;;5071294;28;20839;-57
2022/05/12 08:45:15;;;;;;;11.63;3.73;;;;;;;;;;5072150;28;20447;-57
2022/05/12 08:47:44;;;;;;;4.83;3.00;;;;;;;;;;5070065;28;20420;-57
2022/05/12 08:50:12;;;;;;;8.30;4.00;;;;;;;;;;5071435;28;20419;-57
2022/05/12 08:52:49;;;;;;;3.70;3.37;;;;;;;;;;5070852;28;20923;-57
2022/05/12 08:55:25;;;;;;;4.40;3.77;;;;;;;;;;5071307;28;20425;-58
2022/05/12 08:57:59;;;;;;;5.27;3.30;;;;;;;;;;5071503;28;20416;-58
2022/05/12 09:00:26;;;;;;;8.40;4.00;;;;;;;;;;5063415;28;20427;-59
2022/05/12 09:02:52;;;;;;;6.80;4.60;;;;;;;;;;5070731;28;20436;-59
2022/05/12 09:05:19;;;;;;;9.60;4.20;;;;;;;;;;5071540;28;20443;-58
2022/05/12 09:07:58;;;;;;;6.10;3.67;;;;;;;;;;5071333;28;20409;-58
2022/05/12 09:10:30;;;;;;;4.20;3.80;;;;;;;;;;5071170;28;20926;-58
2022/05/12 09:13:00;;;;;;;10.40;4.00;;;;;;;;;;5070477;28;20412;-58
2022/05/12 09:15:31;;;;;;;7.13;3.83;;;;;;;;;;5070975;28;20420;-57
2022/05/12 09:18:02;;;;;;;4.20;3.80;;;;;;;;;;5071266;28;20456;-57
2022/05/12 09:20:29;;;;;;;6.43;3.30;;;;;;;;;;5070965;28;20416;-57
2022/05/12 09:22:56;;;;;;;5.77;3.47;;;;;;;;;;5070737;28;20420;-57
2022/05/12 09:25:33;;;;;;;6.67;3.53;;;;;;;;;;5069760;28;20408;-57
2022/05/12 09:27:59;;;;;;;4.10;3.63;;;;;;;;;;5071241;28;20760;-59
2022/05/12 09:30:33;;;;;;;6.03;3.47;;;;;;;;;;5071226;28;20439;-58
2022/05/12 09:32:59;;;;;;;5.87;3.20;;;;;;;;;;5070531;28;20431;-59
2022/05/12 09:35:27;;;;;;;6.40;3.63;;;;;;;;;;5071310;28;20819;-58
2022/05/12 09:37:54;;;;;;;7.33;3.30;;;;;;;;;;5071235;28;20794;-58
2022/05/12 09:40:34;;;;;;;4.90;3.47;;;;;;;;;;5071214;28;20980;-57
2022/05/12 09:43:02;;;;;;;3.83;3.43;;;;;;;;;;5070930;28;21048;-56
2022/05/12 09:45:31;;;;;;;6.47;3.40;;;;;;;;;;5072809;28;20759;-58
2022/05/12 09:48:16;;;;;;;8.80;3.77;;;;;;;;;;5074915;28;20419;-57
2022/05/12 09:50:42;;;;;;;4.10;3.33;;;;;;;;;;5074524;28;20450;-57
2022/05/12 09:53:09;;;;;;;6.90;3.20;;;;;;;;;;5074685;28;20472;-56
2022/05/12 09:55:39;;;;;;;3.43;3.13;;;;;;;;;;5075237;28;20433;-55
2022/05/12 09:58:07;;;;;;;10.70;3.90;;;;;;;;;;5075402;28;20397;-56
2022/05/12 10:00:39;;;;;;;7.60;3.43;;;;;;;;;;5074869;28;20464;-55
2022/05/12 10:08:44;;;;;;;4.03;3.70;;;;;;;;;;5064896;28;20427;-58
2022/05/12 10:11:11;;;;;;;4.50;4.07;;;;;;;;;;5074545;28;20407;-56
2022/05/12 10:13:48;;;;;;;12.30;4.17;;;;;;;;;;5074677;28;20426;-58
2022/05/12 10:16:16;;;;;;;4.97;4.17;;;;;;;;;;5074463;28;20427;-57
2022/05/12 10:18:44;;;;;;;4.07;3.67;;;;;;;;;;5074618;28;20443;-58
2022/05/12 10:21:20;;;;;;;4.57;3.60;;;;;;;;;;5074218;28;20488;-57
2022/05/12 10:23:58;;;;;;;5.60;4.23;;;;;;;;;;5054451;28;20413;-58
2022/05/12 10:26:42;;;;;;;7.50;4.30;;;;;;;;;;5067617;28;20464;-58
2022/05/12 10:29:27;;;;;;;7.63;4.00;;;;;;;;;;5074378;28;20774;-59
2022/05/12 10:32:13;;;;;;;4.50;4.10;;;;;;;;;;5073750;28;20399;-58
2022/05/12 10:34:57;;;;;;;9.00;4.23;;;;;;;;;;5062985;28;20985;-59
2022/05/12 10:37:41;;;;;;;9.83;4.90;;;;;;;;;;5074253;28;20397;-59
2022/05/12 10:40:20;;;;;;;4.73;3.90;;;;;;;;;;5073988;28;20513;-58
2022/05/12 10:42:57;;;;;;;9.63;4.17;;;;;;;;;;5072902;28;20509;-59
2022/05/12 10:45:34;;;;;;;9.80;3.90;;;;;;;;;;5073958;28;20817;-58
2022/05/12 10:48:00;;;;;;;8.07;4.70;;;;;;;;;;5074280;28;20404;-59
2022/05/12 10:50:46;;;;;;;4.23;3.60;;;;;;;;;;5073770;28;20400;-59
2022/05/12 10:53:29;;;;;;;7.90;3.83;;;;;;;;;;5073197;28;20442;-59
2022/05/12 10:55:58;;;;;;;4.10;3.43;;;;;;;;;;5073531;28;20813;-59
2022/05/12 10:58:28;;;;;;;3.60;3.23;;;;;;;;;;5073717;28;20923;-59
2022/05/12 11:00:59;;;;;;;5.00;3.20;;;;;;;;;;5073049;28;20819;-58
2022/05/12 11:03:29;;;;;;;7.17;3.90;;;;;;;;;;5073455;28;20547;-59
2022/05/12 11:06:00;;;;;;;4.33;3.57;;;;;;;;;;5073540;28;21007;-59
2022/05/12 11:08:26;;;;;;;4.13;3.70;;;;;;;;;;5073566;28;20400;-58
2022/05/12 11:10:58;;;;;;;7.53;3.70;;;;;;;;;;5072902;28;20766;-59
2022/05/12 11:13:37;;;;;;;4.63;3.73;;;;;;;;;;5073517;28;20931;-59
2022/05/12 11:16:12;;;;;;;5.60;2.90;;;;;;;;;;5073339;28;20895;-59
2022/05/12 11:18:42;;;;;;;4.33;3.50;;;;;;;;;;5073252;28;20452;-59
2022/05/12 11:21:13;;;;;;;6.20;3.43;;;;;;;;;;5073871;28;20405;-58
2022/05/12 11:23:39;;;;;;;5.33;2.97;;;;;;;;;;5073289;28;20412;-57
2022/05/12 11:26:24;;;;;;;3.80;2.90;;;;;;;;;;5073422;28;20496;-59
2022/05/12 11:32:12;;;;;;;4.33;2.80;;;;;;;;;;5071067;28;20409;-58
2022/05/12 11:34:38;;;;;;;2.57;2.37;;;;;;;;;;5055336;28;20812;-59
2022/05/12 11:37:23;;;;;;;4.23;2.70;;;;;;;;;;5072132;28;20404;-57
2022/05/12 11:39:56;;;;;;;3.63;2.70;;;;;;;;;;5058149;28;20467;-57
2022/05/12 11:42:25;;;;;;;2.40;2.20;;;;;;;;;;5068465;28;20423;-59
2022/05/12 11:45:03;;;;;;;9.93;4.60;;;;;;;;;;5072520;28;20426;-57
2022/05/12 11:47:32;;;;;;;5.63;3.37;;;;;;;;;;5074820;28;20866;-58
2022/05/12 11:50:01;;;;;;;3.97;3.00;;;;;;;;;;5072774;28;20439;-58
2022/05/12 11:52:30;;;;;;;3.60;2.83;;;;;;;;;;5072205;28;20574;-58
2022/05/12 11:54:58;;;;;;;5.50;2.83;;;;;;;;;;5072665;28;20431;-59
2022/05/12 11:57:24;;;;;;;4.20;2.77;;;;;;;;;;5072721;28;20430;-59
2022/05/12 11:59:54;;;;;;;4.60;2.50;;;;;;;;;;5072336;28;20448;-60
2022/05/12 12:02:29;;;;;;;8.50;2.90;;;;;;;;;;5072073;28;20918;-59
2022/05/12 12:05:01;;;;;;;5.23;3.20;;;;;;;;;;5072552;28;20412;-59
2022/05/12 12:07:34;;;;;;;5.93;2.63;;;;;;;;;;5072197;28;20407;-59
2022/05/12 12:10:19;;;;;;;3.87;2.70;;;;;;;;;;5071993;28;20486;-59
2022/05/12 12:12:45;;;;;;;2.90;2.60;;;;;;;;;;5071832;28;20922;-60
2022/05/12 12:15:11;;;;;;;3.87;2.30;;;;;;;;;;5072464;28;20401;-57
2022/05/12 12:17:41;;;;;;;2.97;2.77;;;;;;;;;;5072520;28;20404;-58
2022/05/12 12:20:10;;;;;;;2.13;1.93;;;;;;;;;;5073934;28;20818;-57
2022/05/12 12:22:37;;;;;;;3.13;2.00;;;;;;;;;;5072111;28;20401;-59
2022/05/12 12:25:09;;;;;;;3.33;2.30;;;;;;;;;;5072224;28;20840;-58
2022/05/12 12:27:38;;;;;;;2.10;1.90;;;;;;;;;;5072252;28;20462;-59
2022/05/12 12:30:23;;;;;;;1.97;1.87;;;;;;;;;;5072123;28;20916;-58
2022/05/12 12:33:08;;;;;;;5.90;2.40;;;;;;;;;;5071568;28;20486;-59
2022/05/12 12:35:50;;;;;;;2.80;2.60;;;;;;;;;;5072494;28;20390;-58
2022/05/12 12:38:34;;;;;;;5.07;2.50;;;;;;;;;;5071872;28;20414;-59
2022/05/12 12:41:00;;;;;;;2.87;2.40;;;;;;;;;;5071590;28;20984;-58
2022/05/12 12:43:29;;;;;;;2.90;2.30;;;;;;;;;;5071948;28;20455;-58
2022/05/12 12:45:55;;;;;;;3.23;2.30;;;;;;;;;;5071920;28;20415;-59
2022/05/12 12:48:37;;;;;;;4.33;2.00;;;;;;;;;;5072087;28;20889;-59
2022/05/12 12:51:03;;;;;;;7.80;2.83;;;;;;;;;;5071591;28;20416;-59
2022/05/12 12:56:30;;;;;;;3.37;2.30;;;;;;;;;;5071988;28;20402;-59
2022/05/12 12:58:57;;;;;;;4.50;2.53;;;;;;;;;;5071841;28;20451;-58
2022/05/12 13:01:23;;;;;;;3.43;2.10;;;;;;;;;;5071351;28;20427;-59
2022/05/12 13:03:54;;;;;;;2.27;2.10;;;;;;;;;;5071845;28;20796;-60
2022/05/12 13:06:30;;;;;;;10.00;2.67;;;;;;;;;;5071880;28;20481;-59
2022/05/12 13:09:00;;;;;;;3.30;2.30;;;;;;;;;;5071812;28;20885;-59
2022/05/12 13:11:26;;;;;;;4.87;2.30;;;;;;;;;;5071243;28;20397;-60
2022/05/12 13:13:53;;;;;;;3.53;2.80;;;;;;;;;;5071532;28;20420;-59
2022/05/12 13:16:21;;;;;;;3.00;2.57;;;;;;;;;;5071916;28;20420;-58
2022/05/12 13:18:50;;;;;;;3.00;2.37;;;;;;;;;;5071445;28;20534;-59
2022/05/12 13:21:36;;;;;;;3.40;2.40;;;;;;;;;;5075027;28;20396;-60
2022/05/12 13:24:02;;;;;;;4.03;2.67;;;;;;;;;;5075738;28;20500;-59
2022/05/12 13:26:29;;;;;;;6.43;2.20;;;;;;;;;;5075368;28;20485;-57
2022/05/12 13:28:55;;;;;;;2.53;2.33;;;;;;;;;;5075655;28;20397;-58
2022/05/12 13:31:23;;;;;;;2.80;2.37;;;;;;;;;;5074986;28;20477;-58
2022/05/12 13:33:56;;;;;;;4.03;2.60;;;;;;;;;;5075263;28;20418;-58
2022/05/12 13:36:23;;;;;;;4.40;2.40;;;;;;;;;;5075643;28;20950;-59
2022/05/12 13:38:49;;;;;;;6.67;2.50;;;;;;;;;;5075773;28;20453;-59
2022/05/12 13:41:22;;;;;;;4.30;2.03;;;;;;;;;;5074974;28;20410;-59
2022/05/12 13:43:53;;;;;;;4.07;2.57;;;;;;;;;;5075205;28;20410;-59
2022/05/12 13:46:19;;;;;;;3.40;2.63;;;;;;;;;;5075419;28;20389;-60
2022/05/12 13:48:55;;;;;;;5.27;2.40;;;;;;;;;;5075282;28;20400;-59
2022/05/12 13:51:39;;;;;;;4.80;3.03;;;;;;;;;;5074730;28;20491;-59
2022/05/12 13:54:08;;;;;;;3.83;2.20;;;;;;;;;;5075150;28;20800;-59
2022/05/12 13:56:36;;;;;;;5.30;2.70;;;;;;;;;;5075129;28;20469;-59
2022/05/12 13:59:14;;;;;;;5.37;2.27;;;;;;;;;;5075132;28;20547;-59
2022/05/12 14:01:40;;;;;;;2.53;2.00;;;;;;;;;;5074681;28;20408;-60
2022/05/12 14:04:14;;;;;;;3.43;2.07;;;;;;;;;;5074612;28;20426;-60
2022/05/12 14:07:00;;;;;;;3.10;2.30;;;;;;;;;;5074839;28;20403;-59
2022/05/12 14:09:28;;;;;;;5.07;2.20;;;;;;;;;;5074744;28;20444;-59
2022/05/12 14:11:55;;;;;;;2.43;2.20;;;;;;;;;;5074411;28;20896;-60
2022/05/12 14:19:52;;;;;;;3.47;2.03;;;;;;;;;;5074582;28;20470;-59
2022/05/12 14:22:19;;;;;;;3.80;3.00;;;;;;;;;;5074368;28;20954;-59
2022/05/12 14:24:47;;;;;;;5.27;2.53;;;;;;;;;;5074461;28;20431;-58
2022/05/12 14:27:14;;;;;;;4.50;2.60;;;;;;;;;;5074521;28;20769;-58
2022/05/12 14:29:41;;;;;;;3.53;1.90;;;;;;;;;;5074544;28;20491;-59
2022/05/12 14:32:07;;;;;;;6.57;2.67;;;;;;;;;;5073104;28;20411;-59
2022/05/12 14:34:33;;;;;;;3.87;2.13;;;;;;;;;;5074394;28;20445;-59
2022/05/12 14:37:00;;;;;;;2.10;1.93;;;;;;;;;;5072862;28;20404;-60
2022/05/12 14:39:27;;;;;;;3.83;2.13;;;;;;;;;;5074110;28;20444;-59
2022/05/12 14:41:53;;;;;;;4.63;2.10;;;;;;;;;;5073726;28;20404;-58
2022/05/12 14:44:19;;;;;;;2.67;2.17;;;;;;;;;;5074064;28;20767;-58
2022/05/12 14:46:49;;;;;;;7.20;2.47;;;;;;;;;;5074190;28;20866;-59
2022/05/12 14:49:19;;;;;;;2.47;2.20;;;;;;;;;;5074041;28;20430;-58
2022/05/12 14:51:45;;;;;;;2.20;2.00;;;;;;;;;;5072786;28;20413;-59
2022/05/12 14:54:11;;;;;;;4.73;2.37;;;;;;;;;;5073980;28;20528;-59
2022/05/12 14:56:37;;;;;;;3.90;2.23;;;;;;;;;;5074030;28;20414;-58
2022/05/12 14:59:03;;;;;;;9.40;2.40;;;;;;;;;;5073658;28;20450;-59
2022/05/12 15:01:32;;;;;;;2.67;2.20;;;;;;;;;;5073260;28;20408;-59
2022/05/12 15:03:59;;;;;;;2.63;2.43;;;;;;;;;;5073813;28;20437;-59
2022/05/12 15:06:30;;;;;;;3.90;2.10;;;;;;;;;;5073833;28;20461;-57
2022/05/12 15:08:56;;;;;;;3.60;2.30;;;;;;;;;;5073747;28;20399;-59
2022/05/12 15:11:22;;;;;;;5.20;2.53;;;;;;;;;;5073106;28;20404;-59
2022/05/12 15:13:48;;;;;;;4.50;2.30;;;;;;;;;;5073688;28;20771;-58
2022/05/12 15:16:14;;;;;;;6.37;2.53;;;;;;;;;;5073609;28;20435;-59